Time;durP1;ratioP1;P1;durP2;ratioP2;P2;SDS_P1;SDS_P2;PMS_P1;PMS_P2;Temp;Humidity;BMP_temperature;BMP_pressure;BME280_temperature;BME280_humidity;BME280_pressure;Samples;Min_cycle;Max_cycle;Signal;HPM_P1;HPM_P2
2023/05/06 00:01:39;;;;;;;;;;;19.40;87.20;;;;;;5094747;28;20408;-59
2023/05/06 00:04:05;;;;;;;;;;;19.30;86.90;;;;;;5076487;28;20320;-61
2023/05/06 00:06:32;;;;;;;;;;;19.30;86.90;;;;;;5094559;28;20377;-61
2023/05/06 00:08:58;;;;;;;;;;;19.30;86.90;;;;;;5094274;28;19916;-61
2023/05/06 00:11:23;;;;;;;;;;;19.30;86.90;;;;;;5094293;28;20424;-62
2023/05/06 00:13:49;;;;;;;;;;;19.30;86.90;;;;;;5094277;28;19986;-61
2023/05/06 00:16:14;;;;;;;;;;;19.40;87.00;;;;;;5093971;28;19966;-61
2023/05/06 00:18:40;;;;;;;;;;;19.40;87.00;;;;;;5093914;28;20367;-61
2023/05/06 00:21:06;;;;;;;;;;;19.40;87.10;;;;;;5094456;28;19908;-61
2023/05/06 00:23:32;;;;;;;;;;;19.40;87.10;;;;;;5094443;28;19916;-61
2023/05/06 00:25:57;;;;;;;;;;;19.40;87.10;;;;;;5075505;28;19915;-61
2023/05/06 00:28:23;;;;;;;;;;;19.40;87.10;;;;;;5094423;28;19919;-61
2023/05/06 00:30:48;;;;;;;;;;;19.40;87.10;;;;;;5094406;28;19908;-61
2023/05/06 00:33:14;;;;;;;;;;;19.40;87.10;;;;;;5094029;28;19915;-61
2023/05/06 00:35:39;;;;;;;;;;;19.40;87.20;;;;;;5093636;28;20286;-61
2023/05/06 00:38:09;;;;;;;;;;;19.40;87.10;;;;;;5094045;28;19908;-61
2023/05/06 00:40:34;;;;;;;;;;;19.40;87.10;;;;;;5093951;28;20007;-61
2023/05/06 00:43:00;;;;;;;;;;;19.40;87.00;;;;;;5093549;28;20447;-61
2023/05/06 00:45:25;;;;;;;;;;;19.40;87.00;;;;;;5076012;28;20006;-61
2023/05/06 00:47:51;;;;;;;;;;;19.40;87.00;;;;;;5093206;28;19912;-61
2023/05/06 00:50:17;;;;;;;;;;;19.40;87.00;;;;;;5094130;28;20256;-61
2023/05/06 00:52:42;;;;;;;;;;;19.40;87.00;;;;;;5093822;28;19938;-61
2023/05/06 00:55:08;;;;;;;;;;;19.40;87.00;;;;;;5094122;28;20426;-61
2023/05/06 00:57:34;;;;;;;;;;;19.40;87.00;;;;;;5093539;28;19915;-61
2023/05/06 00:59:59;;;;;;;;;;;19.40;87.00;;;;;;5094349;28;19942;-61
2023/05/06 01:02:25;;;;;;;;;;;19.40;87.10;;;;;;5092346;28;20333;-61
2023/05/06 01:04:50;;;;;;;;;;;19.40;87.10;;;;;;5093695;28;19974;-61
2023/05/06 01:07:24;;;;;;;;;;;19.40;87.00;;;;;;5073917;28;19913;-60
2023/05/06 01:09:49;;;;;;;;;;;19.40;87.10;;;;;;5093757;28;19912;-61
2023/05/06 01:12:18;;;;;;;;;;;19.40;87.10;;;;;;5093895;28;19908;-61
2023/05/06 01:14:47;;;;;;;;;;;19.40;87.20;;;;;;5093883;28;19915;-61
2023/05/06 01:17:13;;;;;;;;;;;19.40;87.20;;;;;;5092701;28;20371;-61
2023/05/06 01:19:47;;;;;;;;;;;19.40;87.20;;;;;;5093885;28;19915;-61
2023/05/06 01:22:14;;;;;;;;;;;19.40;87.20;;;;;;5093870;28;20045;-61
2023/05/06 01:24:41;;;;;;;;;;;19.40;87.30;;;;;;5093847;28;19939;-61
2023/05/06 01:27:07;;;;;;;;;;;19.40;87.20;;;;;;5092902;28;19908;-60
2023/05/06 01:29:34;;;;;;;;;;;19.40;87.20;;;;;;5093757;28;20358;-61
2023/05/06 01:32:07;;;;;;;;;;;19.40;87.20;;;;;;5093926;28;19908;-61
2023/05/06 01:34:39;;;;;;;;;;;19.40;87.20;;;;;;5093837;28;19966;-61
2023/05/06 01:37:37;;;;;;;;;;;19.40;87.20;;;;;;5093764;28;19954;-61
2023/05/06 01:40:04;;;;;;;;;;;19.40;87.20;;;;;;5037813;28;20332;-61
2023/05/06 01:42:31;;;;;;;;;;;19.40;87.20;;;;;;5093433;28;19924;-61
2023/05/06 01:44:58;;;;;;;;;;;19.40;87.20;;;;;;5093713;28;19995;-61
2023/05/06 01:47:24;;;;;;;;;;;19.40;87.20;;;;;;5093287;28;20232;-61
2023/05/06 01:49:50;;;;;;;;;;;19.40;87.20;;;;;;5094035;28;19912;-61
2023/05/06 01:52:15;;;;;;;;;;;19.40;87.30;;;;;;5096988;28;20378;-60
2023/05/06 01:54:41;;;;;;;;;;;19.40;87.30;;;;;;5079172;28;19954;-61
2023/05/06 01:57:06;;;;;;;;;;;19.40;87.30;;;;;;5097179;28;19995;-61
2023/05/06 01:59:31;;;;;;;;;;;19.30;87.30;;;;;;5096022;28;19919;-61
2023/05/06 02:01:57;;;;;;;;;;;19.40;87.30;;;;;;5095677;28;19945;-61
2023/05/06 02:04:22;;;;;;;;;;;19.40;87.40;;;;;;5097052;28;19908;-61
2023/05/06 02:06:48;;;;;;;;;;;19.40;87.40;;;;;;5097045;28;20002;-61
2023/05/06 02:09:13;;;;;;;;;;;19.40;87.40;;;;;;5095934;28;19912;-61
2023/05/06 02:11:39;;;;;;;;;;;19.40;87.40;;;;;;5096774;28;20355;-61
2023/05/06 02:14:04;;;;;;;;;;;19.40;87.40;;;;;;5096576;28;19908;-61
2023/05/06 02:16:30;;;;;;;;;;;19.40;87.40;;;;;;5096497;28;19991;-61
2023/05/06 02:18:55;;;;;;;;;;;19.40;87.40;;;;;;5095205;28;19915;-61
2023/05/06 02:21:21;;;;;;;;;;;19.40;87.40;;;;;;5092913;28;19944;-60
2023/05/06 02:23:47;;;;;;;;;;;19.40;87.40;;;;;;5096554;28;19923;-60
2023/05/06 02:26:12;;;;;;;;;;;19.40;87.40;;;;;;5097046;28;19914;-61
2023/05/06 02:28:38;;;;;;;;;;;19.40;87.40;;;;;;5096243;28;19912;-61
2023/05/06 02:31:03;;;;;;;;;;;19.40;87.30;;;;;;5077279;28;19916;-61
2023/05/06 02:33:29;;;;;;;;;;;19.40;87.30;;;;;;5096479;28;19915;-61
2023/05/06 02:35:54;;;;;;;;;;;19.40;87.30;;;;;;5096391;28;19908;-61
2023/05/06 02:38:20;;;;;;;;;;;19.40;87.30;;;;;;5096091;28;19915;-61
2023/05/06 02:40:45;;;;;;;;;;;19.40;87.30;;;;;;5077629;28;19919;-60
2023/05/06 02:43:11;;;;;;;;;;;19.40;87.30;;;;;;5096322;28;19973;-61
2023/05/06 02:45:36;;;;;;;;;;;19.40;87.30;;;;;;5096270;28;19931;-61
2023/05/06 02:48:02;;;;;;;;;;;19.40;87.30;;;;;;5095868;28;20390;-61
2023/05/06 02:50:27;;;;;;;;;;;19.40;87.30;;;;;;5095256;28;19916;-61
2023/05/06 02:52:53;;;;;;;;;;;19.40;87.30;;;;;;5095727;28;19908;-60
2023/05/06 02:55:18;;;;;;;;;;;19.40;87.30;;;;;;5095726;28;19914;-61
2023/05/06 02:57:44;;;;;;;;;;;19.40;87.40;;;;;;5095659;28;20320;-61
2023/05/06 03:00:09;;;;;;;;;;;19.40;87.30;;;;;;5077325;28;19912;-61
2023/05/06 03:02:35;;;;;;;;;;;19.40;87.30;;;;;;5077712;28;20317;-61
2023/05/06 03:05:03;;;;;;;;;;;19.40;87.40;;;;;;5096140;28;19957;-61
2023/05/06 03:07:29;;;;;;;;;;;19.40;87.40;;;;;;5095668;28;19919;-61
2023/05/06 03:09:54;;;;;;;;;;;19.40;87.40;;;;;;5094945;28;19913;-61
2023/05/06 03:12:20;;;;;;;;;;;19.40;87.40;;;;;;5095639;28;20329;-60
2023/05/06 03:14:45;;;;;;;;;;;19.40;87.40;;;;;;5095663;28;19950;-61
2023/05/06 03:17:11;;;;;;;;;;;19.40;87.40;;;;;;5095611;28;19908;-61
2023/05/06 03:19:36;;;;;;;;;;;19.40;87.40;;;;;;5094910;28;19912;-61
2023/05/06 03:22:02;;;;;;;;;;;19.40;87.40;;;;;;5095199;28;19916;-61
2023/05/06 03:24:27;;;;;;;;;;;19.40;87.50;;;;;;5095539;28;20389;-61
2023/05/06 03:26:53;;;;;;;;;;;19.40;87.50;;;;;;5095694;28;19908;-61
2023/05/06 03:29:18;;;;;;;;;;;19.40;87.50;;;;;;5095000;28;19920;-61
2023/05/06 03:31:44;;;;;;;;;;;19.40;87.60;;;;;;5095627;28;19908;-60
2023/05/06 03:34:09;;;;;;;;;;;19.40;87.60;;;;;;5094921;28;19919;-61
2023/05/06 03:36:35;;;;;;;;;;;19.40;87.60;;;;;;5095547;28;20022;-61
2023/05/06 03:39:00;;;;;;;;;;;19.40;87.70;;;;;;5095308;28;19908;-60
2023/05/06 03:41:26;;;;;;;;;;;19.40;87.70;;;;;;5094962;28;20381;-61
2023/05/06 03:43:52;;;;;;;;;;;19.40;87.70;;;;;;5094665;28;19960;-60
2023/05/06 03:46:18;;;;;;;;;;;19.40;87.70;;;;;;5095015;28;20289;-61
2023/05/06 03:48:43;;;;;;;;;;;19.40;87.70;;;;;;5094752;28;19958;-61
2023/05/06 03:51:09;;;;;;;;;;;19.40;87.60;;;;;;5094975;28;19923;-61
2023/05/06 03:53:34;;;;;;;;;;;19.40;87.60;;;;;;5094811;28;19961;-61
2023/05/06 03:56:00;;;;;;;;;;;19.40;87.60;;;;;;5094090;28;19912;-61
2023/05/06 03:58:26;;;;;;;;;;;19.40;87.60;;;;;;5094584;28;20271;-61
2023/05/06 04:00:51;;;;;;;;;;;19.40;87.60;;;;;;5095151;28;20355;-61
2023/05/06 04:03:17;;;;;;;;;;;19.50;87.60;;;;;;5094423;28;20324;-61
2023/05/06 04:05:44;;;;;;;;;;;19.40;87.60;;;;;;5094412;28;19912;-61
2023/05/06 04:08:09;;;;;;;;;;;19.50;87.60;;;;;;5093343;28;19912;-61
2023/05/06 04:10:39;;;;;;;;;;;19.40;87.60;;;;;;5094649;28;19915;-61
2023/05/06 04:13:05;;;;;;;;;;;19.40;87.60;;;;;;5094146;28;19915;-61
2023/05/06 04:15:33;;;;;;;;;;;19.50;87.60;;;;;;5092877;28;19912;-60
2023/05/06 04:17:58;;;;;;;;;;;19.40;87.60;;;;;;5094322;28;19938;-61
2023/05/06 04:20:24;;;;;;;;;;;19.40;87.60;;;;;;5094235;28;20378;-61
2023/05/06 04:22:49;;;;;;;;;;;19.40;87.60;;;;;;5094119;28;19967;-61
2023/05/06 04:25:17;;;;;;;;;;;19.50;87.60;;;;;;5094211;28;19918;-60
2023/05/06 04:27:42;;;;;;;;;;;19.40;87.60;;;;;;5094338;28;19912;-61
2023/05/06 04:30:08;;;;;;;;;;;19.40;87.60;;;;;;5094057;28;19912;-61
2023/05/06 04:32:33;;;;;;;;;;;19.50;87.60;;;;;;5094025;28;19908;-61
2023/05/06 04:34:59;;;;;;;;;;;19.50;87.60;;;;;;5094354;28;19909;-61
2023/05/06 04:37:27;;;;;;;;;;;19.40;87.60;;;;;;5074994;28;19915;-61
2023/05/06 04:39:53;;;;;;;;;;;19.40;87.70;;;;;;5094056;28;19995;-61
2023/05/06 04:42:18;;;;;;;;;;;19.40;87.70;;;;;;5094169;28;19931;-61
2023/05/06 04:44:44;;;;;;;;;;;19.40;87.70;;;;;;5093921;28;19912;-61
2023/05/06 04:47:10;;;;;;;;;;;19.50;87.80;;;;;;5092786;28;19912;-61
2023/05/06 04:49:35;;;;;;;;;;;19.40;87.70;;;;;;5094724;28;20036;-61
2023/05/06 04:52:01;;;;;;;;;;;19.40;87.70;;;;;;5094099;28;19934;-61
2023/05/06 04:54:26;;;;;;;;;;;19.40;87.80;;;;;;5093859;28;20339;-61
2023/05/06 04:56:52;;;;;;;;;;;19.40;87.70;;;;;;5093255;28;19912;-61
2023/05/06 04:59:18;;;;;;;;;;;19.40;87.70;;;;;;5093715;28;19942;-61
2023/05/06 05:01:43;;;;;;;;;;;19.50;87.80;;;;;;5093670;28;19913;-61
2023/05/06 05:04:08;;;;;;;;;;;19.50;87.80;;;;;;5093672;28;19915;-61
2023/05/06 05:06:34;;;;;;;;;;;19.50;87.90;;;;;;5093919;28;20248;-61
2023/05/06 05:08:59;;;;;;;;;;;19.50;87.90;;;;;;5091743;28;19923;-61
2023/05/06 05:11:25;;;;;;;;;;;19.50;87.90;;;;;;5093970;28;19908;-61
2023/05/06 05:13:51;;;;;;;;;;;19.50;87.90;;;;;;5093954;28;19915;-60
2023/05/06 05:16:16;;;;;;;;;;;19.50;87.90;;;;;;5093558;28;20104;-61
2023/05/06 05:18:41;;;;;;;;;;;19.50;87.90;;;;;;5095613;28;19912;-61
2023/05/06 05:21:07;;;;;;;;;;;19.50;87.90;;;;;;5093370;28;20388;-61
2023/05/06 05:23:34;;;;;;;;;;;19.50;87.90;;;;;;5092822;28;19920;-61
2023/05/06 05:26:00;;;;;;;;;;;19.50;87.90;;;;;;5098269;28;20260;-61
2023/05/06 05:28:25;;;;;;;;;;;19.50;87.90;;;;;;5097759;28;19918;-60
2023/05/06 05:30:51;;;;;;;;;;;19.50;87.90;;;;;;5099144;28;20366;-60
2023/05/06 05:33:16;;;;;;;;;;;19.50;87.90;;;;;;5093713;28;19974;-61
2023/05/06 05:35:42;;;;;;;;;;;19.50;87.90;;;;;;5104866;28;19919;-60
2023/05/06 05:38:07;;;;;;;;;;;19.50;87.90;;;;;;5117509;28;20327;-60
2023/05/06 05:40:34;;;;;;;;;;;19.50;87.90;;;;;;5111028;28;19908;-60
2023/05/06 05:42:59;;;;;;;;;;;19.50;87.90;;;;;;5096812;28;19920;-60
2023/05/06 05:45:25;;;;;;;;;;;19.50;87.90;;;;;;5096055;28;20248;-60
2023/05/06 05:47:52;;;;;;;;;;;19.50;87.90;;;;;;5097116;28;19912;-59
2023/05/06 05:50:18;;;;;;;;;;;19.50;87.90;;;;;;5097019;28;19935;-59
2023/05/06 05:52:43;;;;;;;;;;;19.50;87.90;;;;;;5096802;28;20359;-60
2023/05/06 05:55:09;;;;;;;;;;;19.50;87.90;;;;;;5094117;28;19931;-59
2023/05/06 05:57:34;;;;;;;;;;;19.50;88.00;;;;;;5089996;28;19917;-59
2023/05/06 06:00:00;;;;;;;;;;;19.50;88.00;;;;;;5096638;28;19912;-59
2023/05/06 06:02:25;;;;;;;;;;;19.50;88.20;;;;;;5102676;28;20142;-60
2023/05/06 06:04:51;;;;;;;;;;;19.50;88.00;;;;;;5096065;28;20418;-60
2023/05/06 06:07:16;;;;;;;;;;;19.50;88.00;;;;;;5095684;28;19918;-60
2023/05/06 06:09:45;;;;;;;;;;;19.50;88.00;;;;;;5096055;28;20012;-59
2023/05/06 06:12:11;;;;;;;;;;;19.50;88.00;;;;;;5095706;28;20240;-61
2023/05/06 06:14:36;;;;;;;;;;;19.50;88.00;;;;;;5091232;28;20283;-61
2023/05/06 06:17:02;;;;;;;;;;;19.50;88.00;;;;;;5096721;28;19923;-60
2023/05/06 06:19:27;;;;;;;;;;;19.50;88.10;;;;;;5117300;28;20014;-60
2023/05/06 06:21:52;;;;;;;;;;;19.50;88.10;;;;;;5099886;28;19912;-60
2023/05/06 06:24:18;;;;;;;;;;;19.50;88.10;;;;;;5094794;28;19920;-60
2023/05/06 06:26:43;;;;;;;;;;;19.50;88.10;;;;;;5077419;28;20385;-60
2023/05/06 06:29:09;;;;;;;;;;;19.50;88.10;;;;;;5094937;28;19915;-60
2023/05/06 06:31:34;;;;;;;;;;;19.50;88.20;;;;;;5110409;28;19972;-61
2023/05/06 06:34:04;;;;;;;;;;;19.50;88.20;;;;;;5104099;28;19919;-60
2023/05/06 06:36:29;;;;;;;;;;;19.50;88.30;;;;;;5095676;28;19908;-60
2023/05/06 06:38:54;;;;;;;;;;;19.50;88.40;;;;;;5095037;28;20279;-60
2023/05/06 06:41:20;;;;;;;;;;;19.50;88.40;;;;;;5078242;28;19920;-60
2023/05/06 06:43:46;;;;;;;;;;;19.50;88.60;;;;;;5106135;28;20012;-60
2023/05/06 06:46:11;;;;;;;;;;;19.50;88.60;;;;;;5077328;28;19919;-60
2023/05/06 06:48:36;;;;;;;;;;;19.50;88.70;;;;;;5096112;28;20270;-60
2023/05/06 06:51:02;;;;;;;;;;;19.50;88.60;;;;;;5107949;28;19912;-59
2023/05/06 06:53:27;;;;;;;;;;;19.50;88.70;;;;;;5110602;28;19916;-59
2023/05/06 06:55:53;;;;;;;;;;;19.50;88.70;;;;;;5076636;28;19912;-60
2023/05/06 06:58:18;;;;;;;;;;;19.50;88.70;;;;;;5093757;28;19963;-60
2023/05/06 07:00:44;;;;;;;;;;;19.50;88.70;;;;;;5094676;28;20355;-60
2023/05/06 07:03:09;;;;;;;;;;;19.50;88.70;;;;;;5112684;28;19919;-60
2023/05/06 07:05:35;;;;;;;;;;;19.50;88.70;;;;;;5098698;28;19912;-60
2023/05/06 07:08:00;;;;;;;;;;;19.50;88.70;;;;;;5078478;28;19912;-60
2023/05/06 07:10:26;;;;;;;;;;;19.50;88.70;;;;;;5098994;28;19962;-60
2023/05/06 07:12:52;;;;;;;;;;;19.50;88.70;;;;;;5094549;28;19919;-60
2023/05/06 07:15:18;;;;;;;;;;;19.50;88.70;;;;;;5096203;28;20345;-60
2023/05/06 07:17:43;;;;;;;;;;;19.50;88.60;;;;;;5100665;28;20008;-60
2023/05/06 07:20:09;;;;;;;;;;;19.50;88.70;;;;;;5097394;28;19908;-60
2023/05/06 07:22:35;;;;;;;;;;;19.50;88.60;;;;;;5108803;28;20008;-60
2023/05/06 07:25:00;;;;;;;;;;;19.50;88.70;;;;;;5093728;28;20282;-60
2023/05/06 07:27:29;;;;;;;;;;;19.50;88.60;;;;;;5115288;28;20338;-60
2023/05/06 07:29:54;;;;;;;;;;;19.50;88.40;;;;;;5101771;28;19955;-60
2023/05/06 07:32:20;;;;;;;;;;;19.50;88.50;;;;;;5093573;28;19935;-61
2023/05/06 07:34:45;;;;;;;;;;;19.50;88.60;;;;;;5093924;28;19919;-60
2023/05/06 07:37:11;;;;;;;;;;;19.50;88.60;;;;;;5094383;28;20286;-60
2023/05/06 07:39:36;;;;;;;;;;;19.50;88.60;;;;;;5095051;28;19962;-60
2023/05/06 07:42:02;;;;;;;;;;;19.50;88.60;;;;;;5095406;28;19920;-61
2023/05/06 07:44:27;;;;;;;;;;;19.50;88.60;;;;;;5105100;28;20458;-60
2023/05/06 07:46:52;;;;;;;;;;;19.50;88.60;;;;;;5096216;28;19918;-60
2023/05/06 07:49:18;;;;;;;;;;;19.50;88.60;;;;;;5093241;28;20359;-61
2023/05/06 07:51:44;;;;;;;;;;;19.50;88.60;;;;;;5093223;28;20061;-61
2023/05/06 07:54:10;;;;;;;;;;;19.50;88.60;;;;;;5094219;28;20359;-60
2023/05/06 07:56:35;;;;;;;;;;;19.50;88.50;;;;;;5092609;28;19986;-61
2023/05/06 07:59:01;;;;;;;;;;;19.50;88.60;;;;;;5090486;28;20501;-60
2023/05/06 08:01:27;;;;;;;;;;;19.50;88.50;;;;;;5094356;28;19912;-61
2023/05/06 08:03:53;;;;;;;;;;;19.50;88.50;;;;;;5094462;28;19916;-60
2023/05/06 08:06:18;;;;;;;;;;;19.50;88.50;;;;;;5090746;28;19961;-57
2023/05/06 08:08:45;;;;;;;;;;;19.50;88.50;;;;;;5091168;28;20350;-59
2023/05/06 08:11:10;;;;;;;;;;;19.50;88.40;;;;;;5091849;28;19970;-59
2023/05/06 08:13:36;;;;;;;;;;;19.50;88.20;;;;;;5093237;28;19951;-60
2023/05/06 08:16:01;;;;;;;;;;;19.50;88.30;;;;;;5093224;28;20294;-59
2023/05/06 08:18:27;;;;;;;;;;;19.50;88.70;;;;;;5094650;28;19908;-60
2023/05/06 08:20:52;;;;;;;;;;;19.50;88.10;;;;;;5092487;28;20426;-59
2023/05/06 08:23:19;;;;;;;;;;;19.50;87.90;;;;;;5093358;28;19926;-59
2023/05/06 08:25:45;;;;;;;;;;;19.50;87.80;;;;;;5091977;28;19912;-59
2023/05/06 08:28:10;;;;;;;;;;;19.50;88.20;;;;;;5071565;28;19912;-61
2023/05/06 08:30:36;;;;;;;;;;;19.50;88.20;;;;;;5101741;28;19916;-60
2023/05/06 08:33:01;;;;;;;;;;;19.50;87.50;;;;;;5094864;28;19911;-61
2023/05/06 08:35:27;;;;;;;;;;;19.50;87.50;;;;;;5092259;28;19953;-60
2023/05/06 08:37:52;;;;;;;;;;;19.40;87.70;;;;;;5093691;28;20260;-60
2023/05/06 08:40:19;;;;;;;;;;;19.40;87.70;;;;;;5092344;28;19989;-63
2023/05/06 08:42:46;;;;;;;;;;;19.40;88.10;;;;;;5094123;28;19926;-57
2023/05/06 08:45:12;;;;;;;;;;;19.40;88.40;;;;;;5094164;28;19962;-58
2023/05/06 08:47:38;;;;;;;;;;;19.40;88.50;;;;;;5103359;28;19956;-57
2023/05/06 08:50:03;;;;;;;;;;;19.40;89.00;;;;;;5091478;28;19919;-58
2023/05/06 08:52:30;;;;;;;;;;;19.40;89.40;;;;;;5093804;28;20101;-58
2023/05/06 08:55:00;;;;;;;;;;;19.50;89.80;;;;;;5094364;28;19916;-57
2023/05/06 08:57:27;;;;;;;;;;;19.50;89.90;;;;;;5072987;28;20285;-58
2023/05/06 08:59:53;;;;;;;;;;;19.50;89.90;;;;;;5094900;28;20358;-57
2023/05/06 09:02:20;;;;;;;;;;;19.50;89.80;;;;;;5096556;28;19973;-56
2023/05/06 09:04:46;;;;;;;;;;;19.50;89.80;;;;;;5097331;28;20002;-58
2023/05/06 09:07:11;;;;;;;;;;;19.50;90.10;;;;;;5097517;28;20366;-57
2023/05/06 09:09:37;;;;;;;;;;;19.50;89.80;;;;;;5098048;28;20308;-57
2023/05/06 09:12:02;;;;;;;;;;;19.50;89.80;;;;;;5097188;28;19912;-58
2023/05/06 09:14:28;;;;;;;;;;;19.50;89.80;;;;;;5097779;28;20327;-57
2023/05/06 09:16:53;;;;;;;;;;;19.50;89.80;;;;;;5097581;28;19940;-57
2023/05/06 09:19:20;;;;;;;;;;;19.50;89.70;;;;;;5097066;28;19919;-57
2023/05/06 09:21:46;;;;;;;;;;;19.50;89.80;;;;;;5097343;28;19908;-56
2023/05/06 09:24:14;;;;;;;;;;;19.50;89.80;;;;;;5095967;28;19920;-57
2023/05/06 09:26:40;;;;;;;;;;;19.60;89.90;;;;;;5096949;28;20397;-57
2023/05/06 09:29:05;;;;;;;;;;;19.60;89.90;;;;;;5097133;28;20392;-57
2023/05/06 09:31:31;;;;;;;;;;;19.60;89.90;;;;;;5097175;28;19951;-57
2023/05/06 09:33:58;;;;;;;;;;;19.60;89.90;;;;;;5097229;28;20358;-58
2023/05/06 09:36:24;;;;;;;;;;;19.60;90.00;;;;;;5097407;28;19931;-57
2023/05/06 09:38:50;;;;;;;;;;;19.60;90.00;;;;;;5096993;28;19908;-58
2023/05/06 09:41:18;;;;;;;;;;;19.60;90.00;;;;;;5097114;28;19995;-57
2023/05/06 09:43:45;;;;;;;;;;;19.60;90.00;;;;;;5096855;28;20262;-58
2023/05/06 09:46:11;;;;;;;;;;;19.60;90.00;;;;;;5097119;28;19909;-57
2023/05/06 09:48:37;;;;;;;;;;;19.60;90.00;;;;;;5097092;28;19954;-57
2023/05/06 09:51:03;;;;;;;;;;;19.60;90.00;;;;;;5096931;28;19908;-57
2023/05/06 09:53:29;;;;;;;;;;;19.60;89.90;;;;;;5095727;28;19912;-57
2023/05/06 09:55:57;;;;;;;;;;;19.60;89.90;;;;;;5096427;28;19908;-57
2023/05/06 09:58:22;;;;;;;;;;;19.60;89.90;;;;;;5096666;28;19908;-57
2023/05/06 10:00:50;;;;;;;;;;;19.60;89.80;;;;;;5096898;28;19912;-57
2023/05/06 10:03:16;;;;;;;;;;;19.60;89.80;;;;;;5096697;28;19915;-57
2023/05/06 10:05:41;;;;;;;;;;;19.50;89.80;;;;;;5094509;28;19912;-56
2023/05/06 10:08:08;;;;;;;;;;;19.60;90.10;;;;;;5074289;28;20438;-57
2023/05/06 10:10:33;;;;;;;;;;;19.50;89.80;;;;;;5088747;28;19929;-57
2023/05/06 10:13:03;;;;;;;;;;;19.60;89.80;;;;;;5096356;28;20378;-57
2023/05/06 10:15:29;;;;;;;;;;;19.50;89.80;;;;;;5096330;28;20368;-55
2023/05/06 10:17:55;;;;;;;;;;;19.60;89.80;;;;;;5096312;28;19914;-57
2023/05/06 10:20:22;;;;;;;;;;;19.60;89.80;;;;;;5095828;28;19908;-56
2023/05/06 10:22:59;;;;;;;;;;;19.60;89.80;;;;;;5095570;28;20359;-57
2023/05/06 10:25:41;;;;;;;;;;;19.60;89.80;;;;;;5096483;28;20420;-57
2023/05/06 10:28:08;;;;;;;;;;;19.60;89.80;;;;;;5096258;28;19940;-57
2023/05/06 10:30:34;;;;;;;;;;;19.60;89.80;;;;;;5095689;28;19969;-57
2023/05/06 10:33:02;;;;;;;;;;;19.60;89.80;;;;;;5094984;28;19912;-57
2023/05/06 10:35:40;;;;;;;;;;;19.60;89.90;;;;;;5096272;28;19912;-56
2023/05/06 10:38:08;;;;;;;;;;;19.60;89.90;;;;;;5096260;28;19908;-58
2023/05/06 10:40:33;;;;;;;;;;;19.60;89.90;;;;;;5096145;28;19916;-57
2023/05/06 10:43:29;;;;;;;;;;;19.60;89.90;;;;;;5095023;28;20267;-57
2023/05/06 10:46:13;;;;;;;;;;;19.60;89.90;;;;;;5074227;28;19912;-58
2023/05/06 10:48:59;;;;;;;;;;;19.60;89.80;;;;;;5077685;28;19915;-57
2023/05/06 10:51:26;;;;;;;;;;;19.60;89.80;;;;;;5077660;28;19912;-56
2023/05/06 10:53:54;;;;;;;;;;;19.60;89.80;;;;;;5095939;28;19915;-57
2023/05/06 10:56:20;;;;;;;;;;;19.60;89.70;;;;;;5077566;28;20342;-56
2023/05/06 10:58:48;;;;;;;;;;;19.60;89.70;;;;;;5095901;28;19964;-57
2023/05/06 11:01:14;;;;;;;;;;;19.60;89.70;;;;;;5095720;28;19908;-58
2023/05/06 11:03:43;;;;;;;;;;;19.60;89.70;;;;;;5094322;28;19927;-57
2023/05/06 11:06:08;;;;;;;;;;;19.60;89.70;;;;;;5095534;28;19912;-57
2023/05/06 11:08:34;;;;;;;;;;;19.60;89.60;;;;;;5095530;28;20346;-56
2023/05/06 11:10:59;;;;;;;;;;;19.60;89.60;;;;;;5095255;28;19908;-57
2023/05/06 11:13:26;;;;;;;;;;;19.60;89.60;;;;;;5094548;28;19916;-57
2023/05/06 11:15:52;;;;;;;;;;;19.60;89.60;;;;;;5095447;28;19907;-56
2023/05/06 11:18:23;;;;;;;;;;;19.60;89.60;;;;;;5095382;28;19908;-55
2023/05/06 11:21:01;;;;;;;;;;;19.60;89.60;;;;;;5095199;28;20372;-57
2023/05/06 11:23:58;;;;;;;;;;;19.60;90.00;;;;;;5092995;28;19959;-55
2023/05/06 11:26:24;;;;;;;;;;;19.60;89.70;;;;;;5039159;28;19916;-56
2023/05/06 11:28:50;;;;;;;;;;;19.60;89.60;;;;;;5094897;28;19995;-55
2023/05/06 11:31:15;;;;;;;;;;;19.60;89.60;;;;;;5094089;28;19913;-57
2023/05/06 11:33:45;;;;;;;;;;;19.60;90.00;;;;;;5094754;28;19915;-55
2023/05/06 11:36:17;;;;;;;;;;;19.60;89.60;;;;;;5095128;28;19908;-57
2023/05/06 11:38:46;;;;;;;;;;;19.60;89.60;;;;;;5094696;28;19908;-52
2023/05/06 11:41:12;;;;;;;;;;;19.60;89.60;;;;;;5093452;28;20002;-55
2023/05/06 11:43:38;;;;;;;;;;;19.60;89.60;;;;;;5094377;28;19930;-56
2023/05/06 11:46:04;;;;;;;;;;;19.60;89.60;;;;;;5076482;28;19915;-55
2023/05/06 11:48:29;;;;;;;;;;;19.60;89.60;;;;;;5094773;28;19908;-56
2023/05/06 11:50:55;;;;;;;;;;;19.60;89.50;;;;;;5094245;28;19919;-57
2023/05/06 11:53:22;;;;;;;;;;;19.60;89.50;;;;;;5092815;28;20353;-56
2023/05/06 11:55:48;;;;;;;;;;;19.60;89.50;;;;;;5094675;28;20263;-57
2023/05/06 11:58:15;;;;;;;;;;;19.60;89.50;;;;;;5094351;28;19908;-58
2023/05/06 12:00:44;;;;;;;;;;;19.60;89.50;;;;;;5094486;28;20122;-56
2023/05/06 12:03:13;;;;;;;;;;;19.60;89.50;;;;;;5093233;28;20364;-57
2023/05/06 12:05:40;;;;;;;;;;;19.60;89.50;;;;;;5094491;28;19919;-57
2023/05/06 12:08:06;;;;;;;;;;;19.60;89.50;;;;;;5094430;28;19934;-55
2023/05/06 12:10:31;;;;;;;;;;;19.70;89.50;;;;;;5094272;28;19912;-57
2023/05/06 12:12:57;;;;;;;;;;;19.60;89.50;;;;;;5075643;28;19913;-56
2023/05/06 12:15:22;;;;;;;;;;;19.70;89.50;;;;;;5093458;28;19927;-56
2023/05/06 12:17:48;;;;;;;;;;;19.60;89.40;;;;;;5094297;28;19912;-57
2023/05/06 12:20:14;;;;;;;;;;;19.60;89.40;;;;;;5093975;28;19915;-56
2023/05/06 12:22:39;;;;;;;;;;;19.60;89.40;;;;;;5092953;28;19920;-57
2023/05/06 12:25:11;;;;;;;;;;;19.60;89.40;;;;;;5093601;28;19908;-57
2023/05/06 12:27:38;;;;;;;;;;;19.60;89.40;;;;;;5093890;28;19908;-55
2023/05/06 12:30:07;;;;;;;;;;;19.60;89.40;;;;;;5093620;28;20282;-56
2023/05/06 12:32:33;;;;;;;;;;;19.70;89.90;;;;;;5094129;28;20271;-57
2023/05/06 12:35:04;;;;;;;;;;;19.70;89.40;;;;;;5093675;28;19912;-57
2023/05/06 12:37:29;;;;;;;;;;;19.70;89.40;;;;;;5094006;28;19908;-57
2023/05/06 12:39:55;;;;;;;;;;;19.70;89.40;;;;;;5093671;28;19998;-57
2023/05/06 12:42:21;;;;;;;;;;;19.70;89.30;;;;;;5092462;28;19927;-54
2023/05/06 12:44:49;;;;;;;;;;;19.70;89.40;;;;;;5092322;28;20127;-56
2023/05/06 12:47:19;;;;;;;;;;;19.70;89.30;;;;;;5092870;28;19912;-57
2023/05/06 12:49:54;;;;;;;;;;;19.70;89.30;;;;;;5094028;28;19916;-56
2023/05/06 12:52:24;;;;;;;;;;;19.70;89.30;;;;;;5094000;28;20001;-57
2023/05/06 12:54:51;;;;;;;;;;;19.70;89.80;;;;;;5093273;28;19935;-54
2023/05/06 12:57:16;;;;;;;;;;;19.70;89.30;;;;;;5092682;28;19913;-58
2023/05/06 12:59:44;;;;;;;;;;;19.70;89.30;;;;;;5093811;28;19915;-58
2023/05/06 13:02:09;;;;;;;;;;;19.70;89.30;;;;;;5092612;28;20273;-56
2023/05/06 13:04:35;;;;;;;;;;;19.60;89.20;;;;;;5093200;28;19916;-57
2023/05/06 13:07:00;;;;;;;;;;;19.70;89.30;;;;;;5093644;28;20011;-58
2023/05/06 13:09:26;;;;;;;;;;;19.70;89.20;;;;;;5093777;28;19909;-58
2023/05/06 13:11:51;;;;;;;;;;;19.70;89.20;;;;;;5092505;28;19964;-58
2023/05/06 13:14:17;;;;;;;;;;;19.70;89.20;;;;;;5093634;28;19931;-57
2023/05/06 13:16:43;;;;;;;;;;;19.70;89.20;;;;;;5093846;28;19914;-58
2023/05/06 13:19:08;;;;;;;;;;;19.70;89.10;;;;;;5093574;28;19912;-57
2023/05/06 13:21:37;;;;;;;;;;;19.70;89.10;;;;;;5092411;28;19917;-56
2023/05/06 13:24:04;;;;;;;;;;;19.70;89.10;;;;;;5093584;28;19913;-54
2023/05/06 13:26:30;;;;;;;;;;;19.70;89.60;;;;;;5093705;28;19912;-56
2023/05/06 13:28:56;;;;;;;;;;;19.70;89.10;;;;;;5093123;28;20014;-57
2023/05/06 13:31:22;;;;;;;;;;;19.70;89.00;;;;;;5074323;28;19912;-56
2023/05/06 13:33:47;;;;;;;;;;;19.70;89.00;;;;;;5075405;28;19908;-57
2023/05/06 13:36:13;;;;;;;;;;;19.70;89.00;;;;;;5093175;28;19978;-58
2023/05/06 13:38:38;;;;;;;;;;;19.70;89.00;;;;;;5093796;28;20006;-58
2023/05/06 13:41:04;;;;;;;;;;;19.70;89.00;;;;;;5092078;28;19947;-58
2023/05/06 13:43:30;;;;;;;;;;;19.70;89.00;;;;;;5093300;28;20010;-57
2023/05/06 13:45:55;;;;;;;;;;;19.70;88.90;;;;;;5094611;28;19997;-58
2023/05/06 13:48:21;;;;;;;;;;;19.70;88.90;;;;;;5078838;28;20381;-57
2023/05/06 13:50:46;;;;;;;;;;;19.70;89.00;;;;;;5096444;28;19934;-58
2023/05/06 13:53:12;;;;;;;;;;;19.70;88.90;;;;;;5096791;28;19959;-59
2023/05/06 13:55:38;;;;;;;;;;;19.70;89.00;;;;;;5096995;28;19912;-58
2023/05/06 13:58:04;;;;;;;;;;;19.70;88.90;;;;;;5097062;28;19908;-58
2023/05/06 14:00:30;;;;;;;;;;;19.70;88.90;;;;;;5096652;28;20256;-58
2023/05/06 14:02:56;;;;;;;;;;;19.70;88.90;;;;;;5095800;28;19923;-57
2023/05/06 14:05:21;;;;;;;;;;;19.70;88.90;;;;;;5096518;28;19943;-59
2023/05/06 14:07:47;;;;;;;;;;;19.70;88.90;;;;;;5096272;28;19959;-58
2023/05/06 14:10:12;;;;;;;;;;;19.70;88.90;;;;;;5068717;28;19954;-58
2023/05/06 14:12:38;;;;;;;;;;;19.70;88.90;;;;;;5094230;28;19955;-58